createdAt,value
2022-07-26T00:02:24.674Z,23.40
2022-07-26T00:05:10.349Z,23.40
2022-07-26T00:08:10.667Z,23.40
2022-07-26T00:10:56.454Z,23.40
2022-07-26T00:13:42.174Z,23.40
2022-07-26T00:16:28.502Z,23.40
2022-07-26T00:19:14.405Z,23.40
2022-07-26T00:22:18.692Z,23.40
2022-07-26T00:25:07.137Z,23.40
2022-07-26T00:27:53.170Z,23.30
2022-07-26T00:30:38.847Z,23.30
2022-07-26T00:33:24.556Z,23.30
2022-07-26T00:36:10.253Z,23.30
2022-07-26T00:38:55.762Z,23.30
2022-07-26T00:41:41.383Z,23.30
2022-07-26T00:44:40.491Z,23.30
2022-07-26T00:47:26.429Z,23.30
2022-07-26T00:50:15.485Z,23.30
2022-07-26T00:53:01.805Z,23.20
2022-07-26T00:55:49.850Z,23.20
2022-07-26T00:58:35.597Z,23.20
2022-07-26T01:01:21.191Z,23.10
2022-07-26T01:04:06.976Z,23.10
2022-07-26T01:06:53.401Z,23.00
2022-07-26T01:09:39.837Z,23.10
2022-07-26T01:12:25.720Z,23.10
2022-07-26T01:15:13.597Z,23.00
2022-07-26T01:18:00.059Z,23.00
2022-07-26T01:20:45.705Z,23.00
2022-07-26T01:23:31.595Z,23.10
2022-07-26T01:26:17.813Z,23.10
2022-07-26T01:29:05.298Z,23.00
2022-07-26T01:31:51.777Z,23.00
2022-07-26T01:34:37.573Z,22.90
2022-07-26T01:37:23.153Z,22.50
2022-07-26T01:40:09.418Z,22.80
2022-07-26T01:42:55.245Z,22.70
2022-07-26T01:45:41.065Z,22.70
2022-07-26T01:48:26.749Z,22.70
2022-07-26T01:51:12.534Z,22.70
2022-07-26T01:53:57.967Z,22.50
2022-07-26T01:56:43.487Z,23.40
2022-07-26T01:59:29.079Z,22.40
2022-07-26T02:02:18.742Z,22.40
2022-07-26T02:05:05.541Z,22.20
2022-07-26T02:07:51.033Z,22.20
2022-07-26T02:10:59.690Z,22.20
2022-07-26T02:13:53.774Z,22.20
2022-07-26T02:16:45.303Z,22.20
2022-07-26T02:19:32.169Z,22.20
2022-07-26T02:22:19.896Z,22.30
2022-07-26T02:25:05.899Z,22.20
2022-07-26T02:27:51.637Z,22.20
2022-07-26T02:30:38.209Z,22.20
2022-07-26T02:33:25.365Z,22.20
2022-07-26T02:36:10.934Z,22.10
2022-07-26T02:38:56.433Z,22.10
2022-07-26T02:41:42.516Z,22.10
2022-07-26T02:44:28.992Z,22.00
2022-07-26T02:47:14.791Z,22.10
2022-07-26T02:50:00.344Z,22.00
2022-07-26T02:52:49.452Z,22.00
2022-07-26T02:55:35.230Z,22.00
2022-07-26T02:58:21.663Z,22.00
2022-07-26T03:01:07.280Z,22.00
2022-07-26T03:03:54.152Z,22.00
2022-07-26T03:06:39.615Z,22.00
2022-07-26T03:09:25.151Z,22.10
2022-07-26T03:12:10.837Z,22.10
2022-07-26T03:14:56.245Z,22.10
2022-07-26T03:17:41.741Z,22.10
2022-07-26T03:20:27.272Z,22.10
2022-07-26T03:23:12.560Z,22.10
2022-07-26T03:25:58.176Z,22.10
2022-07-26T03:28:44.699Z,22.00
2022-07-26T03:31:30.127Z,22.00
2022-07-26T03:34:15.734Z,22.00
2022-07-26T03:37:01.277Z,21.90
2022-07-26T03:39:46.904Z,21.80
2022-07-26T03:42:32.487Z,21.90
2022-07-26T03:45:17.992Z,21.90
2022-07-26T03:48:03.865Z,21.90
2022-07-26T03:50:49.660Z,21.80
2022-07-26T03:53:35.152Z,21.70
2022-07-26T03:56:31.613Z,21.60
2022-07-26T03:59:18.733Z,21.60
2022-07-26T04:02:04.389Z,21.70
2022-07-26T04:04:49.617Z,21.70
2022-07-26T04:07:40.881Z,21.70
2022-07-26T04:10:27.209Z,21.70
2022-07-26T04:13:12.798Z,21.70
2022-07-26T04:15:58.458Z,21.70
2022-07-26T04:18:43.919Z,21.70
2022-07-26T04:21:29.412Z,21.60
2022-07-26T04:24:15.142Z,21.70
2022-07-26T04:27:00.677Z,21.60
2022-07-26T04:29:46.323Z,21.60
2022-07-26T04:32:32.078Z,21.50
2022-07-26T04:35:18.073Z,21.60
2022-07-26T04:38:04.231Z,21.60
2022-07-26T04:40:51.154Z,23.30
2022-07-26T04:43:37.045Z,21.50
2022-07-26T04:46:22.818Z,20.50
2022-07-26T04:49:08.265Z,21.50
2022-07-26T04:51:58.994Z,21.60
2022-07-26T04:54:44.873Z,21.50
2022-07-26T04:57:30.366Z,21.50
2022-07-26T05:00:23.005Z,21.40
2022-07-26T05:03:08.982Z,21.30
2022-07-26T05:05:54.523Z,21.40
2022-07-26T05:08:42.100Z,21.40
2022-07-26T05:11:28.254Z,21.40
2022-07-26T05:14:13.826Z,21.50
2022-07-26T05:16:59.455Z,21.50
2022-07-26T05:19:57.741Z,21.50
2022-07-26T05:22:45.141Z,21.50
2022-07-26T05:25:30.933Z,21.50
2022-07-26T05:28:16.494Z,21.60
2022-07-26T05:31:02.198Z,21.70
2022-07-26T05:33:47.841Z,21.60
2022-07-26T05:36:33.946Z,21.60
2022-07-26T05:39:19.466Z,21.60
2022-07-26T05:42:05.133Z,21.60
2022-07-26T05:44:50.900Z,21.70
2022-07-26T05:47:36.783Z,21.70
2022-07-26T05:50:22.525Z,21.70
2022-07-26T05:53:08.380Z,21.70
2022-07-26T05:55:54.526Z,21.70
2022-07-26T05:58:40.187Z,21.60
2022-07-26T06:01:25.717Z,21.60
2022-07-26T06:04:13.515Z,21.60
2022-07-26T06:06:59.552Z,21.60
2022-07-26T06:09:45.432Z,21.50
2022-07-26T06:12:31.032Z,21.60
2022-07-26T06:15:16.499Z,21.60
2022-07-26T06:18:02.511Z,21.70
2022-07-26T06:20:48.912Z,21.70
2022-07-26T06:23:35.250Z,21.70
2022-07-26T06:26:20.742Z,21.70
2022-07-26T06:29:06.262Z,21.70
2022-07-26T06:31:52.384Z,21.60
2022-07-26T06:34:38.007Z,21.60
2022-07-26T06:37:23.488Z,21.70
2022-07-26T06:40:10.902Z,21.80
2022-07-26T06:42:58.951Z,21.80
2022-07-26T06:45:49.380Z,21.80
2022-07-26T06:48:35.790Z,21.80
2022-07-26T06:51:22.498Z,21.80
2022-07-26T06:54:08.272Z,21.90
2022-07-26T06:56:54.207Z,21.90
2022-07-26T06:59:39.710Z,21.90
2022-07-26T07:02:26.391Z,21.90
2022-07-26T07:05:12.527Z,21.90
2022-07-26T07:07:58.411Z,21.90
2022-07-26T07:10:44.318Z,21.90
2022-07-26T07:13:30.332Z,21.90
2022-07-26T07:16:16.378Z,22.00
2022-07-26T07:19:02.162Z,22.00
2022-07-26T07:21:47.717Z,22.00
2022-07-26T07:24:33.553Z,22.00
2022-07-26T07:27:19.648Z,22.10
2022-07-26T07:30:08.321Z,22.10
2022-07-26T07:32:55.879Z,22.10
2022-07-26T07:35:42.604Z,22.10
2022-07-26T07:38:28.951Z,22.00
2022-07-26T07:41:16.016Z,22.00
2022-07-26T07:44:01.857Z,22.00
2022-07-26T07:46:47.637Z,22.00
2022-07-26T07:49:33.228Z,22.10
2022-07-26T07:52:18.894Z,22.10
2022-07-26T07:55:36.804Z,22.10
2022-07-26T07:58:10.492Z,22.10
2022-07-26T08:00:56.720Z,22.00
2022-07-26T08:03:42.164Z,22.00
2022-07-26T08:06:27.600Z,21.90
2022-07-26T08:09:13.906Z,22.00
2022-07-26T08:11:59.687Z,22.00
2022-07-26T08:14:46.258Z,22.10
2022-07-26T08:17:31.850Z,22.00
2022-07-26T08:20:20.703Z,22.00
2022-07-26T08:23:09.468Z,22.10
2022-07-26T08:25:58.015Z,22.10
2022-07-26T08:28:47.863Z,22.10
2022-07-26T08:31:34.148Z,22.20
2022-07-26T08:34:21.900Z,22.20
2022-07-26T08:37:17.151Z,22.30
2022-07-26T08:40:04.196Z,22.30
2022-07-26T08:42:55.724Z,22.30
2022-07-26T08:45:41.658Z,22.30
2022-07-26T08:48:27.454Z,22.40
2022-07-26T08:51:13.993Z,22.40
2022-07-26T08:54:05.769Z,22.40
2022-07-26T08:56:53.192Z,22.50
2022-07-26T08:59:39.455Z,22.50
2022-07-26T09:02:40.937Z,22.50
2022-07-26T09:05:37.071Z,22.50
2022-07-26T09:08:28.908Z,22.30
2022-07-26T09:11:23.682Z,22.00
2022-07-26T09:14:09.314Z,22.00
2022-07-26T09:16:59.850Z,22.00
2022-07-26T09:19:46.315Z,21.80
2022-07-26T09:22:32.167Z,21.70
2022-07-26T09:25:23.540Z,21.60
2022-07-26T09:28:26.496Z,21.60
2022-07-26T09:31:12.876Z,21.60
2022-07-26T09:34:00.031Z,21.50
2022-07-26T09:36:53.449Z,21.40
2022-07-26T09:40:09.764Z,21.30
2022-07-26T09:42:57.565Z,21.30
2022-07-26T09:45:43.408Z,21.40
2022-07-26T09:48:36.557Z,22.20
2022-07-26T09:51:39.703Z,21.30
2022-07-26T09:54:33.676Z,21.40
2022-07-26T09:57:20.814Z,21.40
2022-07-26T10:00:07.849Z,21.50
2022-07-26T10:02:54.383Z,21.50
2022-07-26T10:05:40.739Z,21.60
2022-07-26T10:08:27.684Z,21.60
2022-07-26T10:11:14.488Z,21.60
2022-07-26T10:14:00.134Z,21.70
2022-07-26T10:16:45.633Z,21.70
2022-07-26T10:19:45.404Z,21.70
2022-07-26T10:22:44.237Z,21.70
2022-07-26T10:25:32.641Z,21.80
2022-07-26T10:28:27.801Z,21.80
2022-07-26T10:31:30.480Z,21.90
2022-07-26T10:34:35.290Z,21.80
2022-07-26T10:37:23.773Z,21.70
2022-07-26T10:40:22.614Z,21.70
2022-07-26T10:43:38.885Z,21.60
2022-07-26T10:46:20.514Z,21.60
2022-07-26T10:49:09.281Z,21.60
2022-07-26T10:52:08.672Z,21.60
2022-07-26T10:54:57.917Z,21.60
2022-07-26T10:57:45.244Z,21.50
2022-07-26T11:00:30.866Z,21.50
2022-07-26T11:03:16.621Z,21.60
2022-07-26T11:06:29.071Z,21.50
2022-07-26T11:09:16.020Z,21.60
2022-07-26T11:12:18.269Z,21.60
2022-07-26T11:15:15.850Z,21.60
2022-07-26T11:18:28.238Z,21.50
2022-07-26T11:21:15.651Z,21.40
2022-07-26T11:24:03.917Z,21.40
2022-07-26T11:26:50.307Z,21.50
2022-07-26T11:29:38.512Z,21.60
2022-07-26T11:32:26.704Z,21.70
2022-07-26T11:35:12.670Z,21.70
2022-07-26T11:38:11.341Z,21.80
2022-07-26T11:40:57.780Z,21.80
2022-07-26T11:43:43.481Z,21.90
2022-07-26T11:46:38.470Z,22.00
2022-07-26T11:49:52.113Z,22.00
2022-07-26T11:52:32.647Z,22.10
2022-07-26T11:55:29.269Z,22.10
2022-07-26T11:58:14.836Z,22.10
2022-07-26T12:01:00.775Z,22.20
2022-07-26T12:03:49.452Z,22.20
2022-07-26T12:06:39.063Z,22.20
2022-07-26T12:09:36.394Z,22.20
2022-07-26T12:12:27.855Z,22.20
2022-07-26T12:15:15.623Z,22.20
2022-07-26T12:18:01.238Z,22.10
2022-07-26T12:21:02.151Z,22.10
2022-07-26T12:23:51.091Z,22.10
2022-07-26T12:26:37.494Z,22.10
2022-07-26T12:29:29.957Z,22.10
2022-07-26T12:32:18.753Z,22.00
2022-07-26T12:35:12.761Z,22.00
2022-07-26T12:37:58.631Z,21.90
2022-07-26T12:40:44.363Z,21.90
2022-07-26T12:43:41.694Z,21.80
2022-07-26T12:46:27.777Z,21.80
2022-07-26T12:49:13.653Z,21.70
2022-07-26T12:51:59.522Z,21.70
2022-07-26T12:54:48.860Z,21.70
2022-07-26T12:57:35.262Z,21.70
2022-07-26T13:00:22.979Z,21.60
2022-07-26T13:03:08.472Z,21.50
2022-07-26T13:05:54.164Z,21.50
2022-07-26T13:08:39.736Z,21.40
2022-07-26T13:11:25.664Z,21.40
2022-07-26T13:14:11.891Z,21.40
2022-07-26T13:16:59.934Z,21.40
2022-07-26T13:19:45.697Z,21.50
2022-07-26T13:22:31.400Z,21.40
2022-07-26T13:25:19.346Z,21.40
2022-07-26T13:28:06.070Z,21.30
2022-07-26T13:30:51.636Z,21.40
2022-07-26T13:33:39.269Z,21.40
2022-07-26T13:36:25.038Z,21.50
2022-07-26T13:39:11.101Z,21.40
2022-07-26T13:41:56.665Z,21.40
2022-07-26T13:44:42.544Z,21.50
2022-07-26T13:47:28.043Z,21.50
2022-07-26T13:50:13.530Z,21.50
2022-07-26T13:52:59.713Z,21.50
2022-07-26T13:55:45.519Z,21.50
2022-07-26T13:58:32.603Z,21.50
2022-07-26T14:01:18.613Z,21.50
2022-07-26T14:04:05.923Z,21.40
2022-07-26T14:06:52.440Z,21.30
2022-07-26T14:09:38.217Z,21.20
2022-07-26T14:12:23.657Z,21.10
2022-07-26T14:15:14.138Z,21.10
2022-07-26T14:18:04.689Z,21.20
2022-07-26T14:20:50.524Z,21.10
2022-07-26T14:23:36.053Z,21.10
2022-07-26T14:26:21.536Z,21.10
2022-07-26T14:29:07.090Z,21.10
2022-07-26T14:31:53.125Z,21.20
2022-07-26T14:34:39.717Z,21.20
2022-07-26T14:37:42.977Z,21.20
2022-07-26T14:40:30.845Z,21.30
2022-07-26T14:43:16.494Z,21.30
2022-07-26T14:46:03.034Z,21.30
2022-07-26T14:48:54.374Z,21.30
2022-07-26T14:51:40.570Z,21.30
2022-07-26T14:54:26.241Z,21.30
2022-07-26T14:57:11.833Z,21.30
2022-07-26T14:59:59.249Z,21.40
2022-07-26T15:02:47.449Z,21.40
2022-07-26T15:05:33.128Z,21.40
2022-07-26T15:08:18.745Z,21.40
2022-07-26T15:11:05.577Z,21.40
2022-07-26T15:13:51.223Z,21.40
2022-07-26T15:16:37.157Z,21.50
2022-07-26T15:19:25.650Z,21.50
2022-07-26T15:22:11.441Z,21.50
2022-07-26T15:24:56.973Z,21.60
2022-07-26T15:27:42.502Z,21.60
2022-07-26T15:30:28.390Z,21.70
2022-07-26T15:33:14.597Z,21.70
2022-07-26T15:36:04.036Z,21.80
2022-07-26T15:38:51.440Z,21.80
2022-07-26T15:41:37.905Z,21.90
2022-07-26T15:44:24.295Z,21.90
2022-07-26T15:47:11.752Z,22.00
2022-07-26T15:49:57.467Z,22.00
2022-07-26T15:52:48.388Z,22.00
2022-07-26T15:55:34.019Z,22.10
2022-07-26T15:58:21.181Z,22.20
2022-07-26T16:01:07.188Z,22.50
2022-07-26T16:03:52.918Z,22.90
2022-07-26T16:06:38.527Z,23.30
2022-07-26T16:09:24.501Z,23.60
2022-07-26T16:12:10.549Z,23.70
2022-07-26T16:14:56.089Z,23.80
2022-07-26T16:17:41.904Z,23.70
2022-07-26T16:20:27.841Z,23.60
2022-07-26T16:23:13.345Z,23.50
2022-07-26T16:25:59.289Z,23.40
2022-07-26T16:28:45.093Z,23.30
2022-07-26T16:31:31.356Z,23.20
2022-07-26T16:34:17.327Z,23.10
2022-07-26T16:37:04.154Z,23.00
2022-07-26T16:39:49.709Z,22.90
2022-07-26T16:42:35.268Z,22.90
2022-07-26T16:45:20.789Z,22.80
2022-07-26T16:48:06.889Z,22.80
2022-07-26T16:50:53.226Z,22.70
2022-07-26T16:53:39.848Z,22.80
2022-07-26T16:56:25.512Z,22.80
2022-07-26T16:59:11.738Z,22.80
2022-07-26T17:02:01.617Z,22.90
2022-07-26T17:04:48.675Z,22.90
2022-07-26T17:07:38.302Z,22.80
2022-07-26T17:10:24.473Z,22.70
2022-07-26T17:13:10.539Z,22.60
2022-07-26T17:15:56.513Z,22.50
2022-07-26T17:18:42.698Z,22.50
2022-07-26T17:21:29.080Z,22.40
2022-07-26T17:24:16.143Z,22.40
2022-07-26T17:27:02.146Z,22.40
2022-07-26T17:29:48.105Z,22.30
2022-07-26T17:32:34.376Z,22.30
2022-07-26T17:35:20.427Z,22.30
2022-07-26T17:38:07.783Z,22.30
2022-07-26T17:40:54.052Z,22.20
2022-07-26T17:43:39.650Z,22.20
2022-07-26T17:46:25.477Z,22.20
2022-07-26T17:49:12.398Z,22.20
2022-07-26T17:51:58.717Z,22.20
2022-07-26T17:54:44.499Z,22.10
2022-07-26T17:57:31.220Z,22.10
2022-07-26T18:00:21.171Z,22.00
2022-07-26T18:03:07.030Z,21.90
2022-07-26T18:05:52.826Z,21.70
2022-07-26T18:08:38.595Z,21.80
2022-07-26T18:11:24.767Z,21.70
2022-07-26T18:14:11.584Z,21.70
2022-07-26T18:16:58.074Z,21.80
2022-07-26T18:19:44.347Z,21.70
2022-07-26T18:22:30.595Z,21.60
2022-07-26T18:25:16.973Z,21.60
2022-07-26T18:28:06.807Z,21.60
2022-07-26T18:30:53.318Z,21.60
2022-07-26T18:33:39.003Z,21.60
2022-07-26T18:36:24.892Z,21.70
2022-07-26T18:39:12.327Z,21.60
2022-07-26T18:41:58.673Z,21.50
2022-07-26T18:44:44.831Z,21.40
2022-07-26T18:47:30.569Z,21.40
2022-07-26T18:50:17.250Z,21.40
2022-07-26T18:53:03.050Z,21.40
2022-07-26T18:55:49.654Z,21.30
2022-07-26T18:58:35.293Z,21.30
2022-07-26T19:01:20.878Z,21.40
2022-07-26T19:04:07.358Z,21.40
2022-07-26T19:06:53.249Z,21.40
2022-07-26T19:09:39.116Z,21.30
2022-07-26T19:12:24.653Z,21.30
2022-07-26T19:15:10.494Z,21.20
2022-07-26T19:17:56.692Z,21.20
2022-07-26T19:20:43.733Z,21.20
2022-07-26T19:23:29.687Z,21.10
2022-07-26T19:26:15.453Z,21.10
2022-07-26T19:29:01.215Z,21.10
2022-07-26T19:31:46.961Z,21.00
2022-07-26T19:34:32.677Z,21.00
2022-07-26T19:37:21.809Z,20.90
2022-07-26T19:40:08.077Z,20.90
2022-07-26T19:42:53.666Z,20.90
2022-07-26T19:45:39.604Z,20.80
2022-07-26T19:48:25.111Z,20.70
2022-07-26T19:51:10.599Z,20.70
2022-07-26T19:53:56.089Z,20.60
2022-07-26T19:56:41.921Z,20.60
2022-07-26T19:59:27.423Z,20.60
2022-07-26T20:02:13.661Z,20.60
2022-07-26T20:05:00.649Z,20.50
2022-07-26T20:07:50.349Z,20.50
2022-07-26T20:10:36.224Z,20.40
2022-07-26T20:13:22.141Z,20.40
2022-07-26T20:16:07.808Z,20.40
2022-07-26T20:18:53.452Z,20.30
2022-07-26T20:21:39.096Z,20.30
2022-07-26T20:24:26.068Z,20.20
2022-07-26T20:27:11.662Z,20.20
2022-07-26T20:30:00.924Z,20.20
2022-07-26T20:32:47.016Z,20.10
2022-07-26T20:35:32.425Z,20.10
2022-07-26T20:38:20.731Z,20.10
2022-07-26T20:41:06.711Z,20.00
2022-07-26T20:43:52.536Z,20.00
2022-07-26T20:46:40.178Z,19.90
2022-07-26T20:49:26.383Z,19.80
2022-07-26T20:52:11.720Z,19.80
2022-07-26T20:54:57.411Z,19.80
2022-07-26T20:57:43.343Z,19.70
2022-07-26T21:00:30.478Z,19.70
2022-07-26T21:03:17.251Z,19.70
2022-07-26T21:06:03.092Z,19.70
2022-07-26T21:08:48.673Z,19.70
2022-07-26T21:11:34.471Z,19.70
2022-07-26T21:14:20.296Z,19.60
2022-07-26T21:17:11.378Z,19.60
2022-07-26T21:19:57.730Z,19.60
2022-07-26T21:22:43.350Z,19.60
2022-07-26T21:25:28.853Z,19.50
2022-07-26T21:28:14.680Z,19.40
2022-07-26T21:31:00.557Z,19.50
2022-07-26T21:33:45.867Z,19.50
2022-07-26T21:36:31.474Z,19.50
2022-07-26T21:39:17.694Z,19.50
2022-07-26T21:42:03.332Z,19.40
2022-07-26T21:44:48.953Z,19.40
2022-07-26T21:47:34.697Z,19.40
2022-07-26T21:50:23.309Z,19.30
2022-07-26T21:53:09.089Z,19.30
2022-07-26T21:55:56.422Z,19.20
2022-07-26T21:58:41.967Z,19.10
2022-07-26T22:01:27.503Z,19.10
2022-07-26T22:04:13.095Z,19.10
2022-07-26T22:06:58.609Z,19.20
2022-07-26T22:09:44.129Z,19.20
2022-07-26T22:12:30.753Z,19.10
2022-07-26T22:15:16.387Z,19.20
2022-07-26T22:18:02.869Z,19.10
2022-07-26T22:20:49.871Z,19.10
2022-07-26T22:23:35.273Z,19.10
2022-07-26T22:26:25.995Z,19.00
2022-07-26T22:29:12.114Z,19.10
2022-07-26T22:31:57.981Z,19.00
2022-07-26T22:34:43.321Z,18.90
2022-07-26T22:37:28.905Z,19.00
2022-07-26T22:40:14.410Z,18.90
2022-07-26T22:43:00.493Z,18.90
2022-07-26T22:45:46.213Z,18.90
2022-07-26T22:48:35.860Z,18.90
2022-07-26T22:51:23.544Z,18.80
2022-07-26T22:54:09.155Z,18.90
2022-07-26T22:56:54.559Z,18.90
2022-07-26T22:59:40.016Z,18.90
2022-07-26T23:02:25.765Z,18.80
2022-07-26T23:05:12.109Z,18.80
2022-07-26T23:08:00.456Z,18.80
2022-07-26T23:10:49.155Z,18.80
2022-07-26T23:13:34.620Z,18.80
2022-07-26T23:16:20.177Z,18.80
2022-07-26T23:19:08.479Z,18.70
2022-07-26T23:21:54.232Z,18.70
2022-07-26T23:24:39.841Z,18.70
2022-07-26T23:27:28.929Z,18.70
2022-07-26T23:30:14.301Z,18.70
2022-07-26T23:32:59.849Z,18.70
2022-07-26T23:35:45.488Z,18.60
2022-07-26T23:38:31.071Z,18.60
2022-07-26T23:41:16.798Z,18.60
2022-07-26T23:44:02.571Z,18.50
2022-07-26T23:46:48.150Z,18.50
2022-07-26T23:49:33.646Z,18.50
2022-07-26T23:52:18.995Z,18.40
2022-07-26T23:55:04.769Z,18.40
2022-07-26T23:57:50.372Z,18.40
